Aérodrome :
LOGIN :

S'inscrire | Disclaimer

   EN    FR    IT 

 










Légende :    VFR   VFR Marginal   IFR   IFR Intensif   IFR Très Intensif
Visi : 
Plafond : 
>= 8 km
>= 3000ft
5 à 8 km
1000 à 3000 ft
1500m à 5 km
500 à 1000 ft
800 à 1500m
200 à 500 ft
< 800m
< 200 ft
Symboles :   Orages  Brouillard  Fortes neiges  Fortes précipitations  Vent > 20 kt
SIGMETs :   Divers  Orages  Givrage  Turbulence  Onde Orograph.  Cendres Volcan.







- Altitude de l'aérodrome : 1017 ft
- Voir les cartes d'approche


LFSL - Brive Souillac

DERNIER METAR :
  • 221800Z AUTO 29009KT 240V320 9999 FEW016 SCT025 BKN035 10/08 Q1024 TEMPO BKN013

METARs EXPIRÉS :
  • 221730Z AUTO 29014KT 260V320 9999 -RADZ SCT017 BKN023 BKN034 10/07 Q1023 TEMPO BKN013
  • 221700Z AUTO 29010KT 250V310 9999 SCT019 OVC041 10/08 Q1023 NOSIG
  • 221630Z AUTO 29013KT 240V310 9999 BKN019 BKN026 BKN040 11/08 Q1022 NOSIG
  • 221600Z AUTO 28013G25KT 230V310 9999 SCT014 OVC036 11/09 Q1022 NOSIG
  • 221530Z AUTO 27010KT 220V310 9999 BKN019 BKN027 BKN038 12/09 Q1021 TEMPO 27015G25KT

TAF TAF LFSL
Valide du 22 à 18h jusqu'au 23 à 03h UTC


221700Z 2218/2303 27013KT 9999 BKN020 OVC040
TEMPO 2219/2223 BKN013
BECMG 2222/2224 VRB02KT
PROB40
TEMPO 2301/2303 2500 BR OVC002
Pas de NOTAMs connus pour ce terrain.
2 SIGMETs publiés pour la FIR Bordeaux (LFBB) :
 
Onde orographique forte
LFBB SIGMET 5 VALID 221800/222100 LFPW
LFBB BORDEAUX FIR/UIR SEV MTW FCST SE OF LINE N4330 E00245 - N4230 E00145 SFC/FL280 STNR NC=
Turbulence forte
LFBB SIGMET 3 VALID 221500/221800 LFPW
LFBB BORDEAUX FIR/UIR SEV TURB FCST SE OF LINE N4630 E00300 - N4230 E00115 SFC/FL080 STNR NC=



MET'MAP, la Météo Aéronautique d'un coup d'oeil ! - Copyright ORBIFLY Décembre 2007 - Disclaimer

ORBIFLY MET'MAP TEAM :

Programmation & Développement : Alexandra Zaïnal
Conception & Développement : Baudouin d'Aumeries
Co-Programmation & Développement : Marc-Olivier Méhu
Soutien technique & logistique : Manuel Goepfert

Contact : metmap@orbifly.com




SOURCES & CREDITS :

   NOAA